Terminal Aerodrome Forecast
Issued by NWS

Home | Current Version | Previous Version | Text Only | Print | Product List | Glossary On
Versions: 1 2 3 4 5 6 7 8 9 10 11 12 13 14 15 16
000
FTUS46 KSTO 200500
TAFSMF
TAF
KSMF 200537Z 2006/2106 15005KT P6SM OVC010
      TEMPO 2006/2010 1 1/2SM BR OVC004
     FM201100 14005KT 1SM BR OVC004
      TEMPO 2011/2015 1/4SM FG OVC001
     FM201600 16005KT 3SM BR VCSH OVC015
     FM202000 18009KT 3SM BR OVC015=

USA.gov is the U.S. government's official web portal to all federal, state and local government web resources and services.